Time;durP1;ratioP1;P1;durP2;ratioP2;P2;SDS_P1;SDS_P2;PMS_P1;PMS_P2;Temp;Humidity;BMP_temperature;BMP_pressure;BME280_temperature;BME280_humidity;BME280_pressure;Samples;Min_cycle;Max_cycle;Signal;HPM_P1;HPM_P2
2021/05/25 00:01:32;;;;;;;25.17;4.07;;;11.20;99.90;;;;;;5067782;28;20555;-80
2021/05/25 00:03:58;;;;;;;20.73;4.47;;;11.00;99.90;;;;;;5065678;28;20024;-68
2021/05/25 00:06:24;;;;;;;25.90;4.03;;;11.00;99.90;;;;;;5063753;28;20032;-68
2021/05/25 00:08:49;;;;;;;18.75;3.88;;;11.20;99.90;;;;;;5063242;28;20024;-72
2021/05/25 00:11:16;;;;;;;16.25;4.10;;;11.00;99.90;;;;;;5063895;28;20028;-68
2021/05/25 00:13:42;;;;;;;16.48;3.80;;;11.10;99.90;;;;;;5061740;28;20020;-79
2021/05/25 00:16:08;;;;;;;19.40;3.72;;;11.10;99.90;;;;;;5062957;28;20023;-80
2021/05/25 00:18:33;;;;;;;17.38;4.50;;;11.10;99.90;;;;;;5066966;28;20483;-69
2021/05/25 00:20:59;;;;;;;19.77;4.00;;;10.80;99.90;;;;;;5063843;28;20631;-78
2021/05/25 00:23:25;;;;;;;21.02;4.32;;;10.70;99.90;;;;;;5060172;28;20048;-80
2021/05/25 00:25:51;;;;;;;19.98;4.18;;;10.60;99.90;;;;;;5060518;28;20071;-80
2021/05/25 00:28:20;;;;;;;18.67;4.30;;;10.60;99.90;;;;;;5062579;28;20070;-80
2021/05/25 00:30:46;;;;;;;22.95;4.75;;;10.60;99.90;;;;;;5060458;28;20029;-81
2021/05/25 00:33:12;;;;;;;23.77;4.97;;;10.40;99.90;;;;;;5061292;28;20027;-80
2021/05/25 00:35:40;;;;;;;19.85;4.00;;;10.60;99.90;;;;;;5063868;28;20029;-81
2021/05/25 00:38:06;;;;;;;23.27;3.97;;;10.50;99.90;;;;;;5069990;28;20033;-81
2021/05/25 00:40:32;;;;;;;26.55;4.32;;;10.50;99.90;;;;;;5063255;28;20020;-73
2021/05/25 00:42:58;;;;;;;22.52;4.38;;;10.50;99.90;;;;;;5063729;28;20025;-76
2021/05/25 00:45:23;;;;;;;22.23;3.67;;;10.50;99.90;;;;;;5063989;28;20067;-80
2021/05/25 00:47:49;;;;;;;21.73;4.07;;;10.50;99.90;;;;;;5062920;28;20032;-81
2021/05/25 00:50:21;;;;;;;26.52;4.07;;;10.60;99.90;;;;;;5064656;28;20398;-81
2021/05/25 00:52:50;;;;;;;27.92;5.10;;;10.60;99.90;;;;;;5058254;28;20032;-80
2021/05/25 00:55:19;;;;;;;20.05;3.90;;;10.60;99.90;;;;;;5063861;28;20012;-81
2021/05/25 00:57:47;;;;;;;32.20;4.35;;;10.60;99.90;;;;;;5055689;28;20033;-81
2021/05/25 01:00:15;;;;;;;22.77;4.65;;;10.70;99.90;;;;;;5066788;28;20095;-80
2021/05/25 01:02:41;;;;;;;20.23;3.92;;;10.50;99.90;;;;;;5066380;28;20031;-81
2021/05/25 01:05:11;;;;;;;18.83;3.45;;;10.40;99.90;;;;;;5064419;28;20021;-80
2021/05/25 01:07:36;;;;;;;22.48;3.60;;;10.50;99.90;;;;;;5050757;28;20127;-81
2021/05/25 01:10:03;;;;;;;27.88;3.72;;;10.60;99.90;;;;;;5063540;28;20103;-79
2021/05/25 01:12:32;;;;;;;23.83;4.15;;;10.60;99.90;;;;;;5059137;28;20070;-76
2021/05/25 01:15:04;;;;;;;20.15;3.90;;;10.60;99.90;;;;;;5066484;28;20012;-81
2021/05/25 01:17:30;;;;;;;31.83;4.93;;;10.80;99.90;;;;;;5058736;28;20498;-71
2021/05/25 01:19:58;;;;;;;25.80;4.15;;;10.80;99.90;;;;;;5066922;28;20384;-81
2021/05/25 01:22:24;;;;;;;22.95;4.40;;;10.60;99.90;;;;;;5058238;28;20025;-80
2021/05/25 01:24:50;;;;;;;27.80;4.53;;;10.60;99.90;;;;;;5065199;28;20028;-78
2021/05/25 01:27:16;;;;;;;29.90;4.38;;;10.60;99.90;;;;;;5056859;28;20032;-76
2021/05/25 01:29:41;;;;;;;15.65;4.47;;;10.70;99.90;;;;;;5045663;28;20023;-80
2021/05/25 01:32:07;;;;;;;24.40;4.13;;;10.70;99.90;;;;;;5058696;28;20060;-80
2021/05/25 01:34:35;;;;;;;25.35;4.43;;;10.60;99.90;;;;;;5062099;28;20031;-79
2021/05/25 01:37:01;;;;;;;24.08;3.95;;;10.70;99.90;;;;;;5051670;28;20063;-76
2021/05/25 01:39:26;;;;;;;20.17;3.90;;;10.60;99.90;;;;;;5053673;28;20033;-80
2021/05/25 01:41:53;;;;;;;35.17;5.32;;;10.60;99.90;;;;;;5054157;28;20577;-80
2021/05/25 01:44:18;;;;;;;28.75;4.43;;;10.60;99.90;;;;;;5054791;28;20436;-81
2021/05/25 01:46:48;;;;;;;21.08;3.47;;;10.50;99.90;;;;;;5062249;28;20025;-79
2021/05/25 01:49:15;;;;;;;22.02;3.92;;;10.50;99.90;;;;;;5059896;28;20036;-80
2021/05/25 01:51:51;;;;;;;22.40;3.67;;;10.50;99.90;;;;;;5054216;28;20021;-80
2021/05/25 01:54:18;;;;;;;;;;;10.40;99.90;;;;;;5069498;28;20055;-79
2021/05/25 01:56:45;;;;;;;29.20;4.03;;;10.50;99.90;;;;;;5053145;28;19909;-81
2021/05/25 01:59:10;;;;;;;27.15;4.40;;;10.30;99.90;;;;;;5069726;28;20120;-70
2021/05/25 02:01:36;;;;;;;20.50;4.10;;;10.40;99.90;;;;;;5055483;28;20100;-68
2021/05/25 02:04:03;;;;;;;30.92;4.38;;;10.40;99.90;;;;;;5069284;28;20035;-67
2021/05/25 02:06:29;;;;;;;30.27;4.72;;;10.50;99.90;;;;;;5055731;28;20064;-69
2021/05/25 02:08:56;;;;;;;18.95;3.95;;;10.50;99.90;;;;;;5067088;28;20063;-68
2021/05/25 02:11:22;;;;;;;26.83;4.45;;;10.50;99.90;;;;;;5044719;28;20025;-67
2021/05/25 02:13:48;;;;;;;20.40;4.53;;;10.50;99.90;;;;;;5060815;28;20024;-72
2021/05/25 02:16:17;;;;;;;20.90;3.63;;;10.40;99.90;;;;;;5057558;28;20609;-71
2021/05/25 02:18:48;;;;;;;24.20;4.40;;;10.40;99.90;;;;;;5072564;28;20032;-73
2021/05/25 02:21:17;;;;;;;21.10;4.07;;;10.40;99.90;;;;;;5054391;28;20017;-77
2021/05/25 02:23:44;;;;;;;26.17;4.50;;;10.50;99.90;;;;;;5048970;28;20525;-80
2021/05/25 02:26:10;;;;;;;22.13;3.63;;;10.40;99.90;;;;;;5066749;28;20063;-80
2021/05/25 02:28:37;;;;;;;25.10;4.38;;;10.40;99.90;;;;;;5065423;28;20033;-75
2021/05/25 02:31:03;;;;;;;23.80;4.13;;;10.40;99.90;;;;;;5066370;28;20513;-80
2021/05/25 02:33:29;;;;;;;26.75;4.25;;;10.40;99.90;;;;;;5064501;28;20358;-75
2021/05/25 02:35:58;;;;;;;20.38;3.83;;;10.30;99.90;;;;;;5066592;28;20020;-80
2021/05/25 02:38:26;;;;;;;24.88;4.00;;;10.20;99.90;;;;;;5061834;28;20048;-74
2021/05/25 02:40:51;;;;;;;22.45;3.75;;;10.20;99.90;;;;;;5063896;28;20028;-81
2021/05/25 02:43:20;;;;;;;27.95;4.40;;;10.20;99.90;;;;;;5059631;28;20021;-79
2021/05/25 02:45:46;;;;;;;22.08;3.70;;;10.20;99.90;;;;;;5065336;28;20028;-81
2021/05/25 02:48:12;;;;;;;18.98;4.55;;;10.30;99.90;;;;;;5062101;28;20028;-74
2021/05/25 02:50:39;;;;;;;31.85;4.22;;;10.30;99.90;;;;;;5063748;28;20033;-76
2021/05/25 02:53:05;;;;;;;29.38;3.95;;;10.30;99.90;;;;;;5064264;28;20051;-80
2021/05/25 02:55:33;;;;;;;21.77;3.92;;;10.40;99.90;;;;;;5058157;28;20025;-82
2021/05/25 02:58:00;;;;;;;20.58;4.28;;;10.40;99.90;;;;;;5055309;28;20095;-81
2021/05/25 03:00:31;;;;;;;24.05;3.85;;;10.30;99.90;;;;;;5054665;28;20066;-81
2021/05/25 03:02:57;;;;;;;24.05;3.97;;;10.40;99.90;;;;;;5060954;28;20024;-81
2021/05/25 03:05:25;;;;;;;24.83;4.25;;;10.40;99.90;;;;;;5065350;28;20074;-81
2021/05/25 03:07:56;;;;;;;21.73;4.30;;;10.30;99.90;;;;;;5051940;28;20036;-81
2021/05/25 03:10:24;;;;;;;23.58;3.97;;;10.30;99.90;;;;;;5064959;28;20314;-78
2021/05/25 03:12:51;;;;;;;18.77;3.53;;;10.30;99.90;;;;;;5052839;28;20025;-77
2021/05/25 03:15:20;;;;;;;23.63;4.47;;;10.30;99.90;;;;;;5064732;28;20052;-79
2021/05/25 03:17:45;;;;;;;28.63;4.63;;;10.40;99.90;;;;;;5063841;28;20027;-79
2021/05/25 03:20:14;;;;;;;21.73;4.05;;;10.30;99.90;;;;;;5067859;28;20033;-80
2021/05/25 03:22:40;;;;;;;24.35;4.45;;;10.40;99.90;;;;;;5057354;28;20123;-80
2021/05/25 03:25:09;;;;;;;30.95;4.93;;;10.50;99.90;;;;;;5066775;28;20508;-80
2021/05/25 03:27:35;;;;;;;23.38;4.43;;;10.40;99.90;;;;;;5059413;28;20366;-80
2021/05/25 03:30:01;;;;;;;25.83;3.47;;;10.20;99.90;;;;;;5054505;28;20013;-80
2021/05/25 03:32:26;;;;;;;20.23;3.83;;;10.20;99.90;;;;;;5058059;28;20051;-80
2021/05/25 03:34:52;;;;;;;21.42;4.38;;;10.20;99.90;;;;;;5069569;28;20017;-81
2021/05/25 03:37:18;;;;;;;18.40;3.67;;;10.10;99.90;;;;;;5052188;28;20574;-82
2021/05/25 03:39:44;;;;;;;21.85;4.75;;;9.90;99.90;;;;;;5058713;28;20017;-81
2021/05/25 03:42:09;;;;;;;17.35;3.70;;;9.80;99.90;;;;;;5061408;28;20040;-77
2021/05/25 03:44:35;;;;;;;21.48;4.32;;;9.90;99.90;;;;;;5069751;28;20485;-81
2021/05/25 03:47:01;;;;;;;25.80;4.00;;;10.00;99.90;;;;;;5062110;28;20041;-80
2021/05/25 03:49:26;;;;;;;22.52;3.92;;;10.00;99.90;;;;;;5069448;28;20449;-80
2021/05/25 03:51:52;;;;;;;26.20;3.92;;;10.10;99.90;;;;;;5062594;28;20029;-83
2021/05/25 03:54:26;;;;;;;25.77;3.88;;;10.00;99.90;;;;;;5065997;28;20103;-78
2021/05/25 03:56:56;;;;;;;17.40;3.60;;;9.80;99.90;;;;;;5061966;28;20489;-79
2021/05/25 03:59:22;;;;;;;25.92;4.55;;;10.00;99.90;;;;;;5066635;28;20023;-81
2021/05/25 04:01:48;;;;;;;25.23;4.10;;;10.00;99.90;;;;;;5062716;28;20025;-81
2021/05/25 04:04:14;;;;;;;32.13;4.88;;;9.80;99.90;;;;;;5065506;28;20508;-79
2021/05/25 04:06:41;;;;;;;29.02;4.75;;;9.70;99.90;;;;;;5062338;28;20028;-81
2021/05/25 04:09:08;;;;;;;25.63;4.28;;;9.80;99.90;;;;;;5063923;28;20100;-75
2021/05/25 04:11:35;;;;;;;30.05;4.82;;;9.70;99.90;;;;;;5060916;28;20263;-84
2021/05/25 04:14:01;;;;;;;24.80;5.05;;;9.90;99.90;;;;;;5062431;28;20028;-84
2021/05/25 04:16:27;;;;;;;34.67;4.25;;;9.80;99.90;;;;;;5062885;28;20017;-76
2021/05/25 04:18:53;;;;;;;25.30;4.35;;;9.80;99.90;;;;;;5059900;28;20473;-81
2021/05/25 04:21:18;;;;;;;22.48;3.75;;;9.60;99.90;;;;;;5056201;28;20027;-83
2021/05/25 04:23:44;;;;;;;18.60;3.72;;;9.80;99.90;;;;;;5058655;28;20497;-77
2021/05/25 04:26:10;;;;;;;18.58;3.72;;;9.70;99.90;;;;;;5057443;28;20044;-79
2021/05/25 04:28:37;;;;;;;30.05;4.30;;;9.60;99.90;;;;;;5052510;28;20025;-81
2021/05/25 04:31:03;;;;;;;23.75;4.05;;;9.80;99.90;;;;;;5057573;28;20020;-80
2021/05/25 04:33:29;;;;;;;21.42;5.18;;;9.70;99.90;;;;;;5066058;28;20024;-81
2021/05/25 04:35:54;;;;;;;33.17;4.90;;;9.40;99.90;;;;;;5062884;28;20021;-85
2021/05/25 04:38:20;;;;;;;23.77;4.30;;;9.50;99.90;;;;;;5064333;28;20052;-85
2021/05/25 04:40:47;;;;;;;21.98;4.43;;;9.70;99.90;;;;;;5064113;28;20155;-85
2021/05/25 04:43:13;;;;;;;28.38;4.60;;;9.70;99.90;;;;;;5062543;28;20025;-82
2021/05/25 04:45:41;;;;;;;27.42;4.47;;;9.50;99.90;;;;;;5049876;28;20031;-82
2021/05/25 04:48:07;;;;;;;30.73;3.97;;;9.60;99.90;;;;;;5060750;28;20025;-81
2021/05/25 04:50:35;;;;;;;31.65;4.97;;;9.70;99.90;;;;;;5065046;28;20021;-82
2021/05/25 04:53:01;;;;;;;21.73;3.72;;;9.80;99.90;;;;;;5058755;28;20032;-81
2021/05/25 04:55:26;;;;;;;25.70;4.13;;;9.70;99.90;;;;;;5063305;28;20571;-78
2021/05/25 04:57:53;;;;;;;28.73;5.25;;;9.70;99.90;;;;;;5056637;28;20016;-76
2021/05/25 05:00:24;;;;;;;23.90;4.03;;;9.60;99.90;;;;;;5065078;28;20132;-77
2021/05/25 05:02:51;;;;;;;19.42;3.75;;;10.10;99.90;;;;;;5056060;28;20017;-72
2021/05/25 05:05:17;;;;;;;23.63;3.92;;;9.80;99.90;;;;;;5052619;28;20017;-76
2021/05/25 05:07:43;;;;;;;24.75;4.80;;;9.60;99.90;;;;;;5057669;28;20036;-76
2021/05/25 05:10:10;;;;;;;34.78;6.10;;;9.60;99.90;;;;;;5054216;28;20596;-76
2021/05/25 05:12:35;;;;;;;23.13;4.60;;;9.40;99.90;;;;;;5061494;28;20056;-77
2021/05/25 05:15:02;;;;;;;35.67;5.40;;;9.60;99.90;;;;;;5066313;28;20044;-76
2021/05/25 05:17:28;;;;;;;29.42;5.57;;;9.60;99.90;;;;;;5066680;28;20112;-74
2021/05/25 05:19:55;;;;;;;25.70;4.90;;;9.70;99.90;;;;;;5057386;28;20469;-75
2021/05/25 05:22:21;;;;;;;23.70;4.65;;;9.80;99.90;;;;;;5059636;28;20086;-75
2021/05/25 05:24:47;;;;;;;26.02;5.65;;;9.90;99.90;;;;;;5050677;28;20063;-74
2021/05/25 05:27:13;;;;;;;29.35;5.18;;;10.00;99.90;;;;;;5065100;28;20033;-75
2021/05/25 05:29:39;;;;;;;23.75;4.93;;;9.90;99.90;;;;;;5062359;28;20020;-68
2021/05/25 05:32:05;;;;;;;31.02;4.78;;;10.10;99.90;;;;;;5065493;28;20029;-77
2021/05/25 05:34:31;;;;;;;24.70;4.50;;;10.20;99.90;;;;;;5054305;28;20036;-76
2021/05/25 05:36:57;;;;;;;23.15;4.88;;;9.90;99.90;;;;;;5048735;28;20393;-75
2021/05/25 05:39:22;;;;;;;23.65;4.70;;;10.00;99.90;;;;;;5052491;28;20029;-77
2021/05/25 05:41:48;;;;;;;34.03;5.13;;;10.00;99.90;;;;;;5052558;28;20029;-72
2021/05/25 05:44:14;;;;;;;27.00;4.75;;;10.10;99.90;;;;;;5056390;28;20021;-77
2021/05/25 05:46:40;;;;;;;34.58;5.35;;;10.00;99.90;;;;;;5052249;28;20032;-78
2021/05/25 05:49:06;;;;;;;23.50;4.20;;;10.00;99.90;;;;;;5052406;28;20048;-77
2021/05/25 05:51:31;;;;;;;34.28;4.45;;;10.10;99.90;;;;;;5063103;28;20102;-78
2021/05/25 05:53:58;;;;;;;19.65;4.10;;;10.10;99.90;;;;;;5058228;28;20035;-78
2021/05/25 05:56:24;;;;;;;32.58;5.38;;;10.10;99.90;;;;;;5064717;28;20512;-79
2021/05/25 05:58:50;;;;;;;25.23;4.38;;;10.30;99.90;;;;;;5056469;28;20027;-79
2021/05/25 06:01:17;;;;;;;32.72;4.35;;;10.50;99.90;;;;;;5066057;28;20021;-76
2021/05/25 06:03:46;;;;;;;21.70;4.05;;;10.30;99.90;;;;;;5060592;28;20020;-79
2021/05/25 06:06:12;;;;;;;22.13;4.38;;;10.40;99.90;;;;;;5064918;28;20036;-79
2021/05/25 06:08:39;;;;;;;27.63;5.28;;;10.30;99.90;;;;;;5066422;28;20013;-77
2021/05/25 06:11:05;;;;;;;22.15;3.42;;;10.50;99.90;;;;;;5056034;28;20021;-80
2021/05/25 06:13:31;;;;;;;23.33;4.85;;;10.40;99.90;;;;;;5062540;28;20020;-77
2021/05/25 06:16:01;;;;;;;15.48;3.35;;;10.50;99.90;;;;;;5065569;28;20031;-77
2021/05/25 06:18:27;;;;;;;29.67;4.28;;;10.40;99.90;;;;;;5066789;28;20397;-77
2021/05/25 06:20:53;;;;;;;25.95;4.95;;;10.40;99.90;;;;;;5057989;28;20032;-74
2021/05/25 06:23:18;;;;;;;24.45;4.40;;;10.30;99.90;;;;;;5070384;28;20017;-65
2021/05/25 06:25:45;;;;;;;24.98;4.03;;;10.40;99.90;;;;;;5065230;28;20036;-77
2021/05/25 06:28:11;;;;;;;20.85;4.03;;;10.40;99.90;;;;;;5056722;28;20040;-78
2021/05/25 06:30:37;;;;;;;24.00;4.20;;;10.50;99.90;;;;;;5059598;28;20086;-77
2021/05/25 06:33:04;;;;;;;27.10;4.43;;;10.50;99.90;;;;;;5056547;28;20605;-78
2021/05/25 06:35:30;;;;;;;20.23;4.00;;;10.60;99.90;;;;;;5059443;28;20047;-76
2021/05/25 06:37:57;;;;;;;27.15;4.70;;;10.90;99.90;;;;;;5071637;28;20056;-79
2021/05/25 06:40:22;;;;;;;21.65;4.05;;;11.10;99.90;;;;;;5066260;28;20016;-77
2021/05/25 06:42:48;;;;;;;18.67;3.85;;;11.20;99.90;;;;;;5062577;28;20145;-77
2021/05/25 06:45:14;;;;;;;25.67;4.72;;;11.50;99.90;;;;;;5070147;28;20043;-79
2021/05/25 06:47:40;;;;;;;19.42;3.90;;;11.70;99.90;;;;;;5057255;28;20033;-77
2021/05/25 06:50:07;;;;;;;23.90;4.28;;;12.00;99.90;;;;;;5057462;28;20089;-73
2021/05/25 06:52:32;;;;;;;26.50;4.03;;;12.10;99.90;;;;;;5073128;28;20055;-79
2021/05/25 06:55:00;;;;;;;24.83;3.90;;;12.30;99.90;;;;;;5065774;28;20056;-72
2021/05/25 06:57:26;;;;;;;16.52;3.47;;;12.20;99.90;;;;;;5059962;28;20017;-76
2021/05/25 06:59:52;;;;;;;28.48;4.03;;;12.40;99.90;;;;;;5072919;28;20025;-74
2021/05/25 07:02:19;;;;;;;24.55;3.80;;;12.60;99.90;;;;;;5061782;28;20021;-74
2021/05/25 07:04:45;;;;;;;21.88;4.20;;;12.60;99.90;;;;;;5068047;28;20025;-77
2021/05/25 07:07:10;;;;;;;20.60;3.70;;;12.70;99.90;;;;;;5061619;28;20103;-77
2021/05/25 07:09:36;;;;;;;32.35;3.80;;;12.50;99.90;;;;;;5066388;28;20020;-77
2021/05/25 07:12:03;;;;;;;23.85;3.60;;;12.70;99.90;;;;;;5063588;28;20025;-72
2021/05/25 07:14:29;;;;;;;19.30;3.97;;;12.70;99.90;;;;;;5052887;28;20378;-73
2021/05/25 07:16:55;;;;;;;18.95;3.47;;;12.80;99.90;;;;;;5061715;28;20103;-68
2021/05/25 07:19:21;;;;;;;21.58;3.55;;;12.90;99.90;;;;;;5062024;28;20033;-67
2021/05/25 07:21:50;;;;;;;19.00;3.83;;;13.00;99.90;;;;;;5059585;28;20021;-75
2021/05/25 07:24:15;;;;;;;16.52;3.72;;;13.00;99.90;;;;;;5055128;28;20029;-76
2021/05/25 07:26:41;;;;;;;19.17;3.75;;;13.30;99.90;;;;;;5054001;28;20547;-67
2021/05/25 07:29:07;;;;;;;21.77;3.15;;;13.20;99.90;;;;;;5038276;28;20052;-66
2021/05/25 07:31:33;;;;;;;18.80;3.17;;;13.60;99.90;;;;;;5048653;28;20428;-76
2021/05/25 07:33:59;;;;;;;21.80;4.05;;;13.50;99.90;;;;;;5053764;28;20031;-76
2021/05/25 07:36:25;;;;;;;18.90;4.13;;;13.60;99.90;;;;;;5060228;28;20017;-76
2021/05/25 07:38:50;;;;;;;15.85;3.70;;;13.70;99.90;;;;;;5061498;28;20033;-73
2021/05/25 07:41:16;;;;;;;22.67;3.47;;;13.70;99.90;;;;;;5059843;28;20032;-65
2021/05/25 07:43:44;;;;;;;15.77;3.03;;;13.70;99.90;;;;;;5062501;28;20032;-75
2021/05/25 07:46:10;;;;;;;16.75;3.28;;;13.80;99.90;;;;;;5059722;28;20036;-68
2021/05/25 07:48:35;;;;;;;17.83;3.17;;;13.80;99.90;;;;;;5070066;28;20020;-65
2021/05/25 07:51:01;;;;;;;18.63;3.45;;;14.00;99.90;;;;;;5069785;28;20025;-67
2021/05/25 07:53:27;;;;;;;14.30;3.40;;;14.00;99.90;;;;;;5053295;28;20021;-68
2021/05/25 07:55:53;;;;;;;12.45;2.75;;;14.30;99.90;;;;;;5062557;28;20788;-68
2021/05/25 07:58:18;;;;;;;13.25;2.50;;;14.60;99.90;;;;;;5063022;28;20029;-68
2021/05/25 08:00:44;;;;;;;11.82;3.00;;;14.50;99.90;;;;;;5055871;28;20048;-67
2021/05/25 08:03:11;;;;;;;21.63;3.30;;;14.20;99.90;;;;;;5056277;28;20090;-66
2021/05/25 08:05:37;;;;;;;16.85;3.15;;;14.40;99.90;;;;;;5064813;28;20492;-67
2021/05/25 08:08:03;;;;;;;10.82;3.20;;;14.30;99.90;;;;;;5050861;28;20075;-67
2021/05/25 08:10:29;;;;;;;12.90;3.00;;;13.90;99.90;;;;;;5062549;28;20093;-66
2021/05/25 08:12:55;;;;;;;14.93;3.47;;;14.40;99.90;;;;;;5063265;28;20036;-67
2021/05/25 08:15:23;;;;;;;12.20;2.83;;;14.70;99.90;;;;;;5067569;28;20059;-66
2021/05/25 08:20:19;;;;;;;12.85;2.25;;;15.10;99.90;;;;;;5059671;28;20116;-66
2021/05/25 08:22:58;;;;;;;12.50;2.55;;;15.20;99.90;;;;;;5059041;28;20104;-65
2021/05/25 08:25:28;;;;;;;20.08;3.03;;;14.60;99.90;;;;;;5054459;28;20082;-66
2021/05/25 08:27:55;;;;;;;20.38;3.72;;;14.40;99.90;;;;;;5062510;28;20047;-67
2021/05/25 08:30:23;;;;;;;12.88;2.45;;;14.30;99.90;;;;;;5065069;28;20013;-67
2021/05/25 08:32:50;;;;;;;17.90;3.00;;;14.10;99.90;;;;;;5059639;28;20048;-64
2021/05/25 08:35:17;;;;;;;13.75;2.75;;;14.50;99.90;;;;;;5053169;28;20045;-73
2021/05/25 08:37:47;;;;;;;8.38;2.20;;;14.80;99.90;;;;;;5058984;28;20048;-65
2021/05/25 08:40:14;;;;;;;13.80;2.45;;;14.30;99.90;;;;;;5053384;28;20096;-65
2021/05/25 08:42:39;;;;;;;12.95;2.80;;;14.20;99.90;;;;;;5060821;28;20079;-65
2021/05/25 08:45:10;;;;;;;9.32;3.28;;;14.70;99.90;;;;;;5052513;28;20025;-70
2021/05/25 08:47:36;;;;;;;12.05;2.75;;;14.60;99.90;;;;;;5058406;28;20099;-65
2021/05/25 08:50:08;;;;;;;9.07;2.40;;;14.80;99.90;;;;;;5053115;28;20822;-71
2021/05/25 08:52:34;;;;;;;11.05;2.50;;;15.20;99.90;;;;;;5059358;28;20048;-65
2021/05/25 08:54:59;;;;;;;12.40;2.60;;;15.80;99.90;;;;;;5053002;28;20052;-65
2021/05/25 08:57:25;;;;;;;11.40;2.55;;;16.00;99.90;;;;;;5059040;28;20025;-65
2021/05/25 08:59:51;;;;;;;8.88;2.00;;;15.70;99.90;;;;;;5052927;28;20017;-66
2021/05/25 09:02:17;;;;;;;11.07;2.55;;;15.80;99.90;;;;;;5059937;28;20051;-65
2021/05/25 09:05:05;;;;;;;9.63;1.98;;;16.10;99.90;;;;;;5051034;28;22223;-72
2021/05/25 09:07:46;;;;;;;9.95;1.77;;;16.50;99.90;;;;;;5058344;28;20044;-65
2021/05/25 09:10:42;;;;;;;15.02;2.58;;;16.50;99.90;;;;;;5052101;28;20027;-66
2021/05/25 09:13:16;;;;;;;10.05;2.40;;;16.40;99.90;;;;;;5063364;28;20439;-65
2021/05/25 09:15:53;;;;;;;17.98;2.47;;;16.50;99.90;;;;;;5063329;28;20022;-65
2021/05/25 09:18:18;;;;;;;12.52;2.28;;;15.90;99.90;;;;;;5055502;28;20104;-68
2021/05/25 09:20:53;;;;;;;12.88;2.28;;;15.80;99.90;;;;;;5054804;28;20092;-64
2021/05/25 09:23:32;;;;;;;10.38;2.55;;;16.00;99.90;;;;;;5055020;28;20120;-64
2021/05/25 09:26:04;;;;;;;8.35;1.98;;;16.30;99.90;;;;;;5056064;28;20074;-64
2021/05/25 09:28:30;;;;;;;10.30;2.30;;;16.90;99.90;;;;;;5053598;28;20039;-65
2021/05/25 09:30:56;;;;;;;11.70;2.22;;;17.00;99.90;;;;;;5056021;28;20020;-65
2021/05/25 09:33:22;;;;;;;8.55;2.22;;;16.60;99.90;;;;;;5054806;28;20075;-65
2021/05/25 09:35:49;;;;;;;8.52;2.17;;;16.80;99.90;;;;;;5055234;28;20428;-64
2021/05/25 09:38:26;;;;;;;9.15;2.17;;;17.20;99.90;;;;;;5057425;28;20560;-65
2021/05/25 09:40:52;;;;;;;11.82;2.45;;;17.10;99.90;;;;;;5063452;28;20029;-65
2021/05/25 09:43:29;;;;;;;8.63;2.58;;;16.90;99.90;;;;;;5067025;28;20031;-65
2021/05/25 09:45:56;;;;;;;8.98;2.78;;;17.10;99.90;;;;;;5066238;28;20099;-65
2021/05/25 09:48:23;;;;;;;8.40;2.13;;;17.30;99.90;;;;;;5068779;28;20116;-65
2021/05/25 09:50:49;;;;;;;8.07;1.98;;;17.40;99.90;;;;;;5063425;28;20035;-65
2021/05/25 09:53:21;;;;;;;8.02;2.25;;;18.00;99.90;;;;;;5054357;28;20033;-65
2021/05/25 09:55:53;;;;;;;12.27;2.30;;;17.30;99.90;;;;;;5053909;28;20440;-64
2021/05/25 09:58:22;;;;;;;9.73;2.00;;;16.70;99.90;;;;;;5054692;28;20410;-65
2021/05/25 10:00:47;;;;;;;7.72;2.08;;;16.50;99.90;;;;;;5054643;28;20021;-64
2021/05/25 10:03:18;;;;;;;8.65;2.20;;;17.10;99.90;;;;;;5055536;28;20031;-64
2021/05/25 10:05:49;;;;;;;13.15;2.15;;;17.70;99.90;;;;;;5054038;28;20020;-64
2021/05/25 10:08:17;;;;;;;6.65;1.98;;;17.70;99.90;;;;;;5055193;28;20814;-65
2021/05/25 10:10:43;;;;;;;5.90;1.60;;;18.10;99.90;;;;;;5053721;28;20028;-65
2021/05/25 10:13:10;;;;;;;5.90;1.92;;;18.10;99.90;;;;;;5055902;28;20036;-65
2021/05/25 10:15:36;;;;;;;7.22;2.15;;;18.20;99.90;;;;;;5052996;28;20029;-64
2021/05/25 10:20:31;;;;;;;10.88;2.25;;;17.90;99.90;;;;;;5051500;28;20082;-64
2021/05/25 10:22:57;;;;;;;6.50;1.90;;;17.50;99.90;;;;;;5057288;28;20078;-65
2021/05/25 10:25:25;;;;;;;11.05;2.05;;;17.10;99.90;;;;;;5051757;28;20104;-65
2021/05/25 10:27:51;;;;;;;10.40;2.00;;;17.00;99.90;;;;;;5063780;28;20039;-65
2021/05/25 10:30:23;;;;;;;5.55;1.63;;;17.00;99.90;;;;;;5068449;28;20028;-65
2021/05/25 10:32:50;;;;;;;10.10;1.95;;;16.80;99.90;;;;;;5063974;28;20024;-64
2021/05/25 10:35:20;;;;;;;10.13;2.75;;;16.90;99.90;;;;;;5065652;28;20108;-65
2021/05/25 10:38:05;;;;;;;11.18;2.30;;;16.30;99.90;;;;;;5064703;28;20169;-64
2021/05/25 10:40:37;;;;;;;9.38;2.33;;;15.80;99.90;;;;;;5065975;28;20079;-65
2021/05/25 10:43:42;;;;;;;8.38;2.65;;;15.50;99.90;;;;;;5068826;28;20027;-65
2021/05/25 10:46:10;;;;;;;10.35;2.20;;;15.60;99.90;;;;;;5068963;28;20074;-69
2021/05/25 10:49:08;;;;;;;12.75;2.60;;;16.30;99.90;;;;;;5070407;28;20107;-64
2021/05/25 10:51:51;;;;;;;7.00;2.00;;;16.50;99.90;;;;;;5072404;28;20024;-66
2021/05/25 10:54:34;;;;;;;9.43;2.25;;;16.80;99.90;;;;;;5070368;28;20127;-65
2021/05/25 10:57:25;;;;;;;5.95;1.83;;;17.50;99.90;;;;;;5066889;28;20021;-65
2021/05/25 11:00:06;;;;;;;9.90;2.08;;;18.10;99.90;;;;;;5051775;28;20085;-65
2021/05/25 11:02:57;;;;;;;5.22;1.40;;;17.60;99.90;;;;;;5063909;28;20029;-65
2021/05/25 11:05:34;;;;;;;6.28;1.70;;;17.70;99.90;;;;;;5054568;28;20032;-65
2021/05/25 11:08:11;;;;;;;5.15;1.75;;;18.10;99.90;;;;;;5063791;28;20115;-66
2021/05/25 11:10:37;;;;;;;4.78;1.33;;;18.80;99.90;;;;;;5065351;28;20025;-65
2021/05/25 11:13:15;;;;;;;11.52;1.80;;;18.30;99.90;;;;;;5059795;28;20025;-65
2021/05/25 11:16:03;;;;;;;6.90;1.88;;;18.20;99.90;;;;;;5056410;28;20031;-65
2021/05/25 11:18:34;;;;;;;5.88;1.23;;;18.50;99.90;;;;;;5056315;28;20083;-65
2021/05/25 11:23:45;;;;;;;8.10;1.50;;;18.90;99.90;;;;;;5064221;28;20055;-64
2021/05/25 11:26:54;;;;;;;8.00;1.90;;;18.50;99.90;;;;;;5067636;28;20024;-65
2021/05/25 11:29:22;;;;;;;6.47;1.48;;;19.40;99.90;;;;;;4989850;28;20031;-66
2021/05/25 11:31:48;;;;;;;5.85;1.70;;;19.30;99.90;;;;;;4983135;28;20433;-66
2021/05/25 11:34:15;;;;;;;4.22;1.27;;;19.40;99.90;;;;;;5021156;28;20045;-66
2021/05/25 11:36:41;;;;;;;6.40;1.33;;;19.00;99.90;;;;;;5063189;28;20063;-66
2021/05/25 11:39:10;;;;;;;5.25;1.50;;;19.50;99.90;;;;;;5072038;28;20060;-67
2021/05/25 11:41:36;;;;;;;9.90;1.25;;;19.70;99.90;;;;;;5064248;28;20375;-66
2021/05/25 11:44:12;;;;;;;6.25;1.67;;;19.90;99.90;;;;;;5051579;28;20025;-66
2021/05/25 11:46:41;;;;;;;8.60;1.90;;;19.40;99.90;;;;;;5056682;28;20083;-66
2021/05/25 11:49:08;;;;;;;10.70;2.17;;;18.70;99.90;;;;;;5051091;28;20033;-66
2021/05/25 11:51:34;;;;;;;6.85;2.00;;;18.80;99.90;;;;;;5047087;28;20028;-67
2021/05/25 11:54:10;;;;;;;7.20;1.92;;;19.20;99.90;;;;;;5051719;28;20033;-66
2021/05/25 11:56:37;;;;;;;6.18;2.20;;;19.20;99.90;;;;;;5062719;28;20017;-63
2021/05/25 11:59:04;;;;;;;5.10;1.98;;;19.40;99.90;;;;;;5051598;28;20049;-63
2021/05/25 12:02:00;;;;;;;4.68;1.70;;;18.70;99.90;;;;;;5062244;28;20051;-64
2021/05/25 12:04:30;;;;;;;6.18;1.63;;;19.80;99.90;;;;;;5051406;28;20033;-63
2021/05/25 12:06:58;;;;;;;8.55;1.77;;;19.70;99.90;;;;;;5059377;28;20040;-63
2021/05/25 12:09:28;;;;;;;4.72;1.55;;;19.90;99.90;;;;;;5071297;28;20544;-63
2021/05/25 12:12:08;;;;;;;4.30;1.80;;;20.40;99.90;;;;;;5062050;28;20040;-63
2021/05/25 12:14:33;;;;;;;7.22;1.92;;;19.90;99.90;;;;;;5051584;28;20021;-63
2021/05/25 12:17:01;;;;;;;5.68;1.55;;;20.00;99.90;;;;;;5061931;28;20529;-63
2021/05/25 12:19:27;;;;;;;8.73;1.73;;;19.80;99.90;;;;;;5051139;28;20060;-63
2021/05/25 12:22:04;;;;;;;4.45;1.75;;;19.60;99.90;;;;;;5062024;28;20020;-63
2021/05/25 12:24:30;;;;;;;7.32;1.80;;;20.00;99.90;;;;;;5050811;28;20021;-63
2021/05/25 12:26:57;;;;;;;7.10;1.85;;;19.40;99.90;;;;;;5059077;28;20040;-63
2021/05/25 12:29:25;;;;;;;6.63;1.92;;;19.90;99.90;;;;;;5071094;28;20066;-63
2021/05/25 12:31:52;;;;;;;6.85;1.80;;;20.10;99.90;;;;;;5061827;28;20047;-63
2021/05/25 12:34:20;;;;;;;7.00;1.73;;;20.50;99.10;;;;;;5050892;28;20021;-63
2021/05/25 12:37:00;;;;;;;6.15;1.58;;;20.60;98.70;;;;;;5061779;28;20091;-63
2021/05/25 12:39:40;;;;;;;4.15;1.60;;;20.70;99.40;;;;;;5050789;28;20033;-64
2021/05/25 12:42:16;;;;;;;7.07;2.00;;;21.20;99.70;;;;;;5061193;28;20032;-63
2021/05/25 12:44:42;;;;;;;6.43;1.90;;;21.20;99.40;;;;;;5051052;28;20071;-63
2021/05/25 12:47:10;;;;;;;4.75;1.80;;;21.20;99.40;;;;;;5061771;28;20029;-63
2021/05/25 12:49:46;;;;;;;4.28;1.60;;;21.70;98.50;;;;;;5050656;28;20024;-63
2021/05/25 12:52:32;;;;;;;3.65;1.42;;;21.70;98.70;;;;;;5059623;28;20555;-64
2021/05/25 12:55:10;;;;;;;5.32;1.40;;;21.60;98.30;;;;;;5068754;28;20021;-63